Time;durP1;ratioP1;P1;durP2;ratioP2;P2;SDS_P1;SDS_P2;PMS_P1;PMS_P2;Temp;Humidity;BMP_temperature;BMP_pressure;BME280_temperature;BME280_humidity;BME280_pressure;Samples;Min_cycle;Max_cycle;Signal;HPM_P1;HPM_P2
2023/12/01 00:00:43;;;;;;;16.15;9.95;;;17.90;99.90;;;;;;4596009;19;20077;-74
2023/12/01 00:02:37;;;;;;;14.18;10.13;;;17.90;99.90;;;;;;4596028;19;20032;-74
2023/12/01 00:04:11;;;;;;;13.95;10.00;;;17.90;99.90;;;;;;4595867;19;20065;-74
2023/12/01 00:05:47;;;;;;;13.63;9.45;;;17.90;99.90;;;;;;4594912;19;20023;-74
2023/12/01 00:07:21;;;;;;;13.30;9.10;;;17.80;99.90;;;;;;4596123;19;20003;-74
2023/12/01 00:08:56;;;;;;;14.70;8.82;;;17.80;99.90;;;;;;4595760;19;20002;-74
2023/12/01 00:10:32;;;;;;;18.58;10.30;;;17.80;99.90;;;;;;4594479;19;20038;-74
2023/12/01 00:12:06;;;;;;;14.88;9.48;;;17.80;99.90;;;;;;4595387;19;19999;-74
2023/12/01 00:13:40;;;;;;;14.95;10.10;;;17.80;99.90;;;;;;4595946;19;19994;-74
2023/12/01 00:15:16;;;;;;;13.73;8.85;;;17.80;99.90;;;;;;4595622;19;20002;-74
2023/12/01 00:16:50;;;;;;;14.45;9.65;;;17.70;99.90;;;;;;4595517;19;20018;-74
2023/12/01 00:18:24;;;;;;;16.25;9.85;;;17.70;99.90;;;;;;4594192;19;20022;-74
2023/12/01 00:19:59;;;;;;;14.88;9.88;;;17.70;99.90;;;;;;4594282;19;20040;-74
2023/12/01 00:21:34;;;;;;;14.45;9.60;;;17.70;99.90;;;;;;4594735;19;20379;-74
2023/12/01 00:23:08;;;;;;;15.45;9.73;;;17.70;99.90;;;;;;4595446;19;20318;-74
2023/12/01 00:24:44;;;;;;;14.82;9.95;;;17.70;99.90;;;;;;4595759;19;20007;-74
2023/12/01 00:26:19;;;;;;;13.73;9.98;;;17.70;99.90;;;;;;4594022;19;20011;-74
2023/12/01 00:27:53;;;;;;;13.27;9.43;;;17.70;99.90;;;;;;4595394;19;19995;-74
2023/12/01 00:29:29;;;;;;;15.00;8.60;;;17.70;99.90;;;;;;4595442;19;20016;-74
2023/12/01 00:31:03;;;;;;;16.92;10.43;;;17.70;99.90;;;;;;4595338;19;20017;-74
2023/12/01 00:32:37;;;;;;;12.07;9.13;;;17.70;99.90;;;;;;4595267;19;20306;-74
2023/12/01 00:34:13;;;;;;;12.65;8.65;;;17.70;99.90;;;;;;4595257;19;20083;-74
2023/12/01 00:35:47;;;;;;;13.75;9.57;;;17.70;99.90;;;;;;4594615;19;20086;-74
2023/12/01 00:37:21;;;;;;;15.20;10.38;;;17.70;99.90;;;;;;4595431;19;20002;-74
2023/12/01 00:38:57;;;;;;;13.23;9.18;;;17.70;99.90;;;;;;4595895;19;20031;-74
2023/12/01 00:40:32;;;;;;;13.25;9.05;;;17.70;99.90;;;;;;4595213;19;20446;-74
2023/12/01 00:42:08;;;;;;;14.35;9.32;;;17.70;99.90;;;;;;4594262;19;20330;-74
2023/12/01 00:43:45;;;;;;;12.57;9.07;;;17.70;99.90;;;;;;4595116;19;20058;-74
2023/12/01 00:45:20;;;;;;;15.43;9.95;;;17.70;99.90;;;;;;4593219;19;20030;-74
2023/12/01 00:46:54;;;;;;;14.40;9.90;;;17.70;99.90;;;;;;4594629;19;20314;-74
2023/12/01 00:48:30;;;;;;;12.95;9.30;;;17.70;99.90;;;;;;4595039;19;20024;-74
2023/12/01 00:50:06;;;;;;;13.40;9.68;;;17.70;99.90;;;;;;4593961;19;20005;-74
2023/12/01 00:51:43;;;;;;;16.02;10.13;;;17.70;99.90;;;;;;4595165;19;20022;-74
2023/12/01 00:53:19;;;;;;;14.07;9.45;;;17.70;99.90;;;;;;4594917;19;20002;-74
2023/12/01 00:54:53;;;;;;;12.98;9.68;;;17.70;99.90;;;;;;4594879;19;20062;-74
2023/12/01 00:56:27;;;;;;;15.27;10.43;;;17.70;99.90;;;;;;4593328;19;19999;-74
2023/12/01 00:58:03;;;;;;;12.15;9.63;;;17.70;99.90;;;;;;4595096;19;20418;-74
2023/12/01 00:59:38;;;;;;;14.55;9.90;;;17.70;99.90;;;;;;4594743;19;19995;-74
2023/12/01 01:19:02;;;;;;;13.10;8.48;;;17.70;99.90;;;;;;4559040;19;20046;-73
2023/12/01 01:20:39;;;;;;;13.30;10.00;;;17.70;99.90;;;;;;4594391;19;20010;-73
2023/12/01 01:22:13;;;;;;;14.88;10.60;;;17.70;99.90;;;;;;4593025;19;20014;-73
2023/12/01 01:23:47;;;;;;;13.07;9.23;;;17.70;99.90;;;;;;4594286;19;20029;-73
2023/12/01 01:25:23;;;;;;;15.48;10.57;;;17.70;99.90;;;;;;4594520;19;20007;-73
2023/12/01 01:26:58;;;;;;;15.23;10.65;;;17.70;99.90;;;;;;4594493;19;20017;-73
2023/12/01 01:28:33;;;;;;;13.40;9.48;;;17.70;99.90;;;;;;4594148;19;20005;-73
2023/12/01 01:30:09;;;;;;;12.57;9.30;;;17.70;99.90;;;;;;4594212;19;20010;-73
2023/12/01 01:31:43;;;;;;;13.73;9.98;;;17.70;99.90;;;;;;4594092;19;19995;-73
2023/12/01 01:33:19;;;;;;;12.57;8.98;;;17.70;99.90;;;;;;4593961;19;20019;-73
2023/12/01 01:34:54;;;;;;;14.43;9.73;;;17.70;99.90;;;;;;4594280;19;20031;-73
2023/12/01 01:36:29;;;;;;;13.70;9.55;;;17.70;99.90;;;;;;4593993;19;20425;-73
2023/12/01 01:38:03;;;;;;;16.67;10.90;;;17.70;99.90;;;;;;4593946;19;20074;-73
2023/12/01 01:39:39;;;;;;;14.18;9.85;;;17.70;99.90;;;;;;4592986;19;20006;-73
2023/12/01 01:41:15;;;;;;;16.27;12.18;;;17.70;99.90;;;;;;4593628;19;19999;-73
2023/12/01 01:42:49;;;;;;;18.08;11.52;;;17.70;99.90;;;;;;4593843;19;20006;-73
2023/12/01 01:44:24;;;;;;;17.13;11.88;;;17.70;99.90;;;;;;4593886;19;20006;-73
2023/12/01 01:46:03;;;;;;;13.38;9.75;;;17.70;99.90;;;;;;4594085;19;20002;-73
2023/12/01 01:47:37;;;;;;;13.32;10.32;;;17.60;99.90;;;;;;4592484;19;20006;-73
2023/12/01 01:49:12;;;;;;;13.43;9.95;;;17.60;99.90;;;;;;4592811;19;20034;-73
2023/12/01 01:50:47;;;;;;;15.20;10.05;;;17.60;99.90;;;;;;4592591;19;20002;-73
2023/12/01 01:52:21;;;;;;;14.88;9.63;;;17.60;99.90;;;;;;4592266;19;20008;-73
2023/12/01 01:53:57;;;;;;;13.10;9.55;;;17.60;99.90;;;;;;4592362;19;20003;-73
2023/12/01 01:55:31;;;;;;;14.07;9.50;;;17.50;99.90;;;;;;4593248;19;20010;-73
2023/12/01 01:57:05;;;;;;;13.50;10.25;;;17.50;99.90;;;;;;4593806;19;19995;-73
2023/12/01 01:58:41;;;;;;;14.63;9.73;;;17.50;99.90;;;;;;4593427;19;20002;-73
2023/12/01 02:00:17;;;;;;;12.30;8.98;;;17.50;99.90;;;;;;4592208;19;19998;-73
2023/12/01 02:01:52;;;;;;;13.50;9.20;;;17.60;99.90;;;;;;4590303;19;20359;-73
2023/12/01 02:03:28;;;;;;;13.90;9.55;;;17.50;99.90;;;;;;4593511;19;20039;-73
2023/12/01 02:05:03;;;;;;;14.13;9.55;;;17.50;99.90;;;;;;4593387;19;20425;-73
2023/12/01 02:06:38;;;;;;;13.15;9.23;;;17.50;99.90;;;;;;4593364;19;19994;-73
2023/12/01 02:08:27;;;;;;;12.10;9.50;;;17.50;99.90;;;;;;4593383;19;20006;-73
2023/12/01 02:10:01;;;;;;;13.63;10.68;;;17.50;99.90;;;;;;4590797;19;20077;-73
2023/12/01 02:11:36;;;;;;;14.15;10.18;;;17.50;99.90;;;;;;4592903;19;20440;-73
2023/12/01 02:13:14;;;;;;;14.98;10.00;;;17.50;99.90;;;;;;4593310;19;20066;-73
2023/12/01 02:14:49;;;;;;;13.48;9.93;;;17.50;99.90;;;;;;4593270;19;20306;-73
2023/12/01 02:16:23;;;;;;;14.18;10.00;;;17.50;99.90;;;;;;4593178;19;20005;-73
2023/12/01 02:17:58;;;;;;;15.82;10.95;;;17.50;99.90;;;;;;4593431;19;20506;-73
2023/12/01 02:19:32;;;;;;;14.27;9.80;;;17.60;99.90;;;;;;4592183;19;20019;-73
2023/12/01 02:21:07;;;;;;;15.52;10.60;;;17.60;99.90;;;;;;4592835;19;20007;-73
2023/12/01 02:22:44;;;;;;;13.48;10.23;;;17.60;99.90;;;;;;4593112;19;20029;-73
2023/12/01 02:24:18;;;;;;;14.15;10.45;;;17.60;99.90;;;;;;4593065;19;20043;-73
2023/12/01 02:25:53;;;;;;;13.23;9.23;;;17.60;99.90;;;;;;4593243;19;20074;-73
2023/12/01 02:27:29;;;;;;;12.48;9.18;;;17.60;99.90;;;;;;4593058;19;20011;-73
2023/12/01 02:29:06;;;;;;;13.45;9.05;;;17.60;99.90;;;;;;4592507;19;20094;-73
2023/12/01 02:30:42;;;;;;;12.48;8.88;;;17.60;99.90;;;;;;4592891;19;20002;-73
2023/12/01 02:32:18;;;;;;;14.15;10.25;;;17.60;99.90;;;;;;4591564;19;20007;-73
2023/12/01 02:33:53;;;;;;;11.57;9.02;;;17.60;99.90;;;;;;4592725;19;20369;-73
2023/12/01 02:35:30;;;;;;;13.73;9.93;;;17.60;99.90;;;;;;4592800;19;20018;-73
2023/12/01 02:37:07;;;;;;;12.75;9.65;;;17.60;99.90;;;;;;4592813;19;20306;-73
2023/12/01 02:38:50;;;;;;;15.52;11.18;;;17.60;99.90;;;;;;4592687;19;20006;-73
2023/12/01 02:40:25;;;;;;;13.30;9.55;;;17.60;99.90;;;;;;4591162;19;20010;-73
2023/12/01 02:42:01;;;;;;;12.93;9.23;;;17.60;99.90;;;;;;4591655;19;20445;-73
2023/12/01 02:43:35;;;;;;;13.27;9.23;;;17.60;99.90;;;;;;4592611;19;20027;-73
2023/12/01 02:45:09;;;;;;;14.07;9.95;;;17.60;99.90;;;;;;4592587;19;20003;-73
2023/12/01 02:46:45;;;;;;;12.35;9.75;;;17.60;99.90;;;;;;4592687;19;20002;-73
2023/12/01 02:48:20;;;;;;;14.13;9.85;;;17.60;99.90;;;;;;4592557;19;20307;-73
2023/12/01 02:49:55;;;;;;;12.45;9.48;;;17.60;99.90;;;;;;4591471;19;20003;-73
2023/12/01 02:51:30;;;;;;;14.55;10.75;;;17.60;99.90;;;;;;4592526;19;20013;-73
2023/12/01 02:53:07;;;;;;;13.07;9.07;;;17.70;99.90;;;;;;4592489;19;20070;-73
2023/12/01 02:54:42;;;;;;;13.65;9.90;;;17.60;99.90;;;;;;4592469;19;20006;-73
2023/12/01 02:56:18;;;;;;;15.07;10.05;;;17.70;99.90;;;;;;4592429;19;20010;-73
2023/12/01 02:57:53;;;;;;;13.63;10.07;;;17.70;99.90;;;;;;4592346;19;20371;-73
2023/12/01 02:59:27;;;;;;;12.98;9.65;;;17.70;99.90;;;;;;4591856;19;20009;-73
2023/12/01 03:01:03;;;;;;;16.38;11.63;;;17.70;99.90;;;;;;4592626;19;20006;-73
2023/12/01 03:02:37;;;;;;;16.35;11.52;;;17.70;99.90;;;;;;4591173;19;20029;-73
2023/12/01 03:04:13;;;;;;;15.00;11.35;;;17.70;99.90;;;;;;4592492;19;20421;-73
2023/12/01 03:05:48;;;;;;;15.15;11.75;;;17.70;99.90;;;;;;4592576;19;20010;-73
2023/12/01 03:07:23;;;;;;;16.98;11.55;;;17.60;99.90;;;;;;4590874;19;20003;-73
2023/12/01 03:08:58;;;;;;;13.60;10.63;;;17.60;99.90;;;;;;4591744;19;20062;-73
2023/12/01 03:10:34;;;;;;;12.07;9.50;;;17.60;99.90;;;;;;4592195;19;20444;-73
2023/12/01 03:12:09;;;;;;;12.70;9.02;;;17.60;99.90;;;;;;4591216;19;20068;-73
2023/12/01 03:13:43;;;;;;;13.50;9.80;;;17.60;99.90;;;;;;4591346;19;20020;-73
2023/12/01 03:15:22;;;;;;;12.75;9.18;;;17.60;99.90;;;;;;4592180;19;20002;-73
2023/12/01 03:16:56;;;;;;;13.20;9.15;;;17.60;99.90;;;;;;4592309;19;20058;-73
2023/12/01 03:18:30;;;;;;;14.40;9.00;;;17.60;99.90;;;;;;4590988;19;20088;-73
2023/12/01 03:20:10;;;;;;;13.70;9.80;;;17.60;99.90;;;;;;4590337;19;20018;-73
2023/12/01 03:21:44;;;;;;;13.95;10.40;;;17.60;99.90;;;;;;4591794;19;20003;-73
2023/12/01 03:23:18;;;;;;;13.85;9.38;;;17.60;99.90;;;;;;4590650;19;20077;-73
2023/12/01 03:24:53;;;;;;;13.20;9.30;;;17.60;99.90;;;;;;4591667;19;20002;-73
2023/12/01 03:26:27;;;;;;;14.07;9.73;;;17.60;99.90;;;;;;4591925;19;20460;-73
2023/12/01 03:28:04;;;;;;;14.77;10.20;;;17.60;99.90;;;;;;4592117;19;20014;-73
2023/12/01 03:29:39;;;;;;;12.05;8.95;;;17.60;99.90;;;;;;4591002;19;20007;-73
2023/12/01 03:31:13;;;;;;;13.23;9.82;;;17.60;99.90;;;;;;4592068;19;20337;-73
2023/12/01 03:32:49;;;;;;;12.25;8.73;;;17.60;99.90;;;;;;4591818;19;20062;-73
2023/12/01 03:34:25;;;;;;;13.00;8.77;;;17.60;99.90;;;;;;4591830;19;20429;-73
2023/12/01 03:35:59;;;;;;;13.75;10.13;;;17.60;99.90;;;;;;4592023;19;19999;-73
2023/12/01 03:37:34;;;;;;;12.65;9.13;;;17.60;99.90;;;;;;4591685;19;20295;-73
2023/12/01 03:39:10;;;;;;;13.38;10.00;;;17.60;99.90;;;;;;4591224;19;20025;-73
2023/12/01 03:40:44;;;;;;;13.77;9.65;;;17.60;99.90;;;;;;4591617;19;20003;-73
2023/12/01 03:42:18;;;;;;;11.90;8.50;;;17.60;99.90;;;;;;4590700;19;20006;-73
2023/12/01 03:43:54;;;;;;;13.50;9.57;;;17.60;99.90;;;;;;4591702;19;19999;-73
2023/12/01 03:45:28;;;;;;;11.57;8.60;;;17.60;99.90;;;;;;4591603;19;20450;-73
2023/12/01 03:47:02;;;;;;;13.35;9.70;;;17.60;99.90;;;;;;4589083;19;19999;-73
2023/12/01 03:48:38;;;;;;;14.40;9.88;;;17.60;99.90;;;;;;4590837;19;20298;-73
2023/12/01 03:50:12;;;;;;;12.07;7.97;;;17.60;99.90;;;;;;4591527;19;19997;-73
2023/12/01 03:51:47;;;;;;;12.95;9.23;;;17.60;99.90;;;;;;4591775;19;19995;-73
2023/12/01 03:53:22;;;;;;;11.35;8.60;;;17.60;99.90;;;;;;4591396;19;20081;-73
2023/12/01 03:54:58;;;;;;;12.88;9.70;;;17.60;99.90;;;;;;4590121;19;20006;-73
2023/12/01 03:56:36;;;;;;;13.73;10.25;;;17.60;99.90;;;;;;4591149;19;20429;-73
2023/12/01 03:58:12;;;;;;;12.65;8.85;;;17.60;99.90;;;;;;4591740;19;20002;-73
2023/12/01 03:59:47;;;;;;;12.90;9.18;;;17.60;99.90;;;;;;4590241;19;20003;-73
2023/12/01 04:01:22;;;;;;;12.18;9.10;;;17.70;99.90;;;;;;4591120;19;20006;-73
2023/12/01 04:02:57;;;;;;;12.60;8.57;;;17.60;99.90;;;;;;4591404;19;20005;-73
2023/12/01 04:04:31;;;;;;;12.40;8.38;;;17.60;99.90;;;;;;4591220;19;20418;-73
2023/12/01 04:06:05;;;;;;;12.60;7.93;;;17.70;99.90;;;;;;4591274;19;20006;-73
2023/12/01 04:07:44;;;;;;;12.82;9.13;;;17.70;99.90;;;;;;4591306;19;20009;-73
2023/12/01 04:09:19;;;;;;;12.88;9.40;;;17.70;99.90;;;;;;4590551;19;20298;-73
2023/12/01 04:10:55;;;;;;;13.82;10.05;;;17.70;99.90;;;;;;4591163;19;20326;-73
2023/12/01 04:12:30;;;;;;;13.27;10.00;;;17.70;99.90;;;;;;4589698;19;20022;-73
2023/12/01 04:14:05;;;;;;;14.15;9.68;;;17.70;99.90;;;;;;4590735;19;20022;-73
2023/12/01 04:15:39;;;;;;;13.48;9.40;;;17.60;99.90;;;;;;4591089;19;20306;-73
2023/12/01 04:17:15;;;;;;;12.50;8.32;;;17.60;99.90;;;;;;4591393;19;20009;-73
2023/12/01 04:18:50;;;;;;;13.75;9.50;;;17.60;99.90;;;;;;4590405;19;20006;-73
2023/12/01 04:20:25;;;;;;;12.52;8.77;;;17.60;99.90;;;;;;4591320;19;20019;-73
2023/12/01 04:22:02;;;;;;;12.52;9.05;;;17.50;99.90;;;;;;4590358;19;20007;-73
2023/12/01 04:23:36;;;;;;;10.85;7.95;;;17.50;99.90;;;;;;4591319;19;20013;-73
2023/12/01 04:25:11;;;;;;;12.35;8.95;;;17.50;99.90;;;;;;4593179;19;20030;-73
2023/12/01 04:26:48;;;;;;;12.80;8.55;;;17.50;99.90;;;;;;4595497;19;20007;-73
2023/12/01 04:28:23;;;;;;;11.52;8.30;;;17.50;99.90;;;;;;4595427;19;20009;-73
2023/12/01 04:29:57;;;;;;;12.23;8.80;;;17.50;99.90;;;;;;4593838;19;20002;-73
2023/12/01 04:31:32;;;;;;;12.38;8.82;;;17.50;99.90;;;;;;4595349;19;19998;-73
2023/12/01 04:33:08;;;;;;;11.63;8.32;;;17.50;99.90;;;;;;4595357;19;20074;-73
2023/12/01 04:34:43;;;;;;;13.13;9.18;;;17.50;99.90;;;;;;4595267;19;20421;-73
2023/12/01 04:36:19;;;;;;;13.45;9.00;;;17.50;99.90;;;;;;4595359;19;20003;-73
2023/12/01 04:37:53;;;;;;;13.10;8.63;;;17.50;99.90;;;;;;4595466;19;20009;-73
2023/12/01 04:39:26;;;;;;;11.20;8.43;;;17.50;99.90;;;;;;4594156;19;20063;-73
2023/12/01 04:41:09;;;;;;;13.05;8.90;;;17.50;99.90;;;;;;4595177;19;20094;-73
2023/12/01 04:42:53;;;;;;;11.95;7.85;;;17.60;99.90;;;;;;4593587;19;20013;-73
2023/12/01 04:44:28;;;;;;;12.52;7.93;;;17.80;99.90;;;;;;4593790;19;20011;-73
2023/12/01 04:46:04;;;;;;;18.15;7.63;;;18.00;99.90;;;;;;4594758;19;20467;-73
2023/12/01 04:47:39;;;;;;;35.30;24.27;;;18.20;99.90;;;;;;4594964;19;20430;-73
2023/12/01 04:49:13;;;;;;;67.95;44.22;;;17.90;91.30;;;;;;4594502;19;20024;-75
2023/12/01 04:50:49;;;;;;;68.13;44.92;;;17.30;82.70;;;;;;4595285;19;20074;-73
2023/12/01 04:52:24;;;;;;;66.53;44.20;;;16.90;79.80;;;;;;4593567;19;20318;-73
2023/12/01 04:53:58;;;;;;;69.60;44.85;;;16.70;78.00;;;;;;4594522;19;20007;-73
2023/12/01 04:55:35;;;;;;;66.93;44.25;;;16.60;76.80;;;;;;4595144;19;20011;-73
2023/12/01 04:57:09;;;;;;;67.15;43.90;;;16.50;76.20;;;;;;4594714;19;20021;-73
2023/12/01 04:58:43;;;;;;;70.80;46.72;;;16.50;75.40;;;;;;4594493;19;19998;-73
2023/12/01 05:00:22;;;;;;;68.35;46.63;;;16.50;74.90;;;;;;4595267;19;20029;-74
2023/12/01 05:01:57;;;;;;;68.20;44.25;;;16.40;74.10;;;;;;4592804;19;20081;-73
2023/12/01 05:03:32;;;;;;;68.43;43.53;;;16.40;73.70;;;;;;4594664;19;19999;-73
2023/12/01 05:05:11;;;;;;;68.95;45.10;;;16.30;73.20;;;;;;4594745;19;20014;-73
2023/12/01 05:06:45;;;;;;;66.70;44.33;;;16.30;72.90;;;;;;4594650;19;20015;-73
2023/12/01 05:08:20;;;;;;;67.07;44.05;;;16.20;72.40;;;;;;4594581;19;20429;-73
2023/12/01 05:09:55;;;;;;;68.90;44.70;;;16.20;72.00;;;;;;4593240;19;20362;-73
2023/12/01 05:11:31;;;;;;;67.65;45.38;;;16.10;71.60;;;;;;4594506;19;20039;-73
2023/12/01 05:13:06;;;;;;;66.50;43.28;;;16.00;71.30;;;;;;4594772;19;19998;-74
2023/12/01 05:14:41;;;;;;;68.47;43.22;;;16.00;71.40;;;;;;4593466;19;20020;-73
2023/12/01 05:16:16;;;;;;;66.22;42.60;;;15.90;71.00;;;;;;4594053;19;20003;-73
2023/12/01 05:18:04;;;;;;;70.75;45.10;;;15.90;71.00;;;;;;4594312;19;20003;-73
2023/12/01 05:19:40;;;;;;;73.25;46.28;;;15.90;71.50;;;;;;4593299;19;20104;-74
2023/12/01 05:21:14;;;;;;;70.65;44.17;;;15.80;70.60;;;;;;4592839;19;19998;-74
2023/12/01 05:22:52;;;;;;;70.28;46.10;;;15.70;70.40;;;;;;4592715;19;20317;-74
2023/12/01 05:24:29;;;;;;;75.63;47.58;;;15.70;70.30;;;;;;4592946;19;20009;-73
2023/12/01 05:26:03;;;;;;;67.20;44.22;;;15.60;70.20;;;;;;4594016;19;20006;-73
2023/12/01 05:27:38;;;;;;;55.47;38.22;;;15.60;70.00;;;;;;4592807;19;19998;-74
2023/12/01 05:29:13;;;;;;;61.22;40.53;;;15.50;69.90;;;;;;4593442;19;20314;-74
2023/12/01 05:30:47;;;;;;;57.17;37.78;;;15.50;69.90;;;;;;4594041;19;20005;-74
2023/12/01 05:32:21;;;;;;;54.67;36.42;;;15.40;69.70;;;;;;4594051;19;20006;-74
2023/12/01 05:33:59;;;;;;;51.40;35.53;;;15.40;69.70;;;;;;4594092;19;20017;-74
2023/12/01 05:35:39;;;;;;;53.95;36.55;;;15.40;69.40;;;;;;4592376;19;20006;-74
2023/12/01 05:37:13;;;;;;;47.28;35.05;;;15.30;69.30;;;;;;4592856;19;20035;-74
2023/12/01 05:38:49;;;;;;;48.50;34.30;;;15.30;69.10;;;;;;4593387;19;20440;-74
2023/12/01 05:40:25;;;;;;;48.08;32.92;;;15.20;68.90;;;;;;4593849;19;20009;-74
2023/12/01 05:41:59;;;;;;;46.90;32.30;;;15.20;68.80;;;;;;4591938;19;20010;-74
2023/12/01 05:43:35;;;;;;;43.88;32.08;;;15.20;68.70;;;;;;4593528;19;20006;-74
2023/12/01 05:45:14;;;;;;;43.55;31.55;;;15.10;68.30;;;;;;4593881;19;20003;-74
2023/12/01 05:46:49;;;;;;;47.03;32.55;;;15.10;68.40;;;;;;4592472;19;20010;-74
2023/12/01 05:48:25;;;;;;;50.20;34.72;;;15.10;68.30;;;;;;4593486;19;20318;-74
2023/12/01 05:49:59;;;;;;;53.63;36.58;;;15.10;68.90;;;;;;4592696;19;20466;-75
2023/12/01 05:51:33;;;;;;;52.63;35.03;;;15.10;68.40;;;;;;4593615;19;20019;-75
2023/12/01 05:53:10;;;;;;;53.25;34.72;;;15.00;68.30;;;;;;4594306;19;20003;-74
2023/12/01 05:54:45;;;;;;;41.90;22.13;;;15.00;68.90;;;;;;4592540;19;20006;-74
2023/12/01 05:56:19;;;;;;;34.50;18.45;;;15.30;99.90;;;;;;4593390;19;20003;-74
2023/12/01 05:58:10;;;;;;;30.63;16.15;;;15.60;99.90;;;;;;4593617;19;20026;-74
2023/12/01 05:59:44;;;;;;;30.65;16.83;;;15.90;99.90;;;;;;4591462;19;20011;-74
2023/12/01 06:01:18;;;;;;;31.23;16.17;;;16.10;99.90;;;;;;4593207;19;20010;-74
2023/12/01 06:02:55;;;;;;;28.35;14.73;;;16.30;99.90;;;;;;4593873;19;20310;-74
2023/12/01 06:04:30;;;;;;;27.00;14.73;;;16.60;99.90;;;;;;4592011;19;20020;-74
2023/12/01 06:06:05;;;;;;;30.30;15.10;;;16.80;99.90;;;;;;4593236;19;19998;-74
2023/12/01 06:07:49;;;;;;;27.33;15.38;;;17.00;99.90;;;;;;4593672;19;20493;-74
2023/12/01 06:09:27;;;;;;;24.88;14.60;;;17.30;99.90;;;;;;4591208;19;20023;-74
2023/12/01 06:11:01;;;;;;;29.77;15.27;;;17.50;99.90;;;;;;4593116;19;20058;-74
2023/12/01 06:12:40;;;;;;;24.73;14.68;;;17.70;99.90;;;;;;4593550;19;20029;-74
2023/12/01 06:14:15;;;;;;;23.58;13.52;;;17.90;99.90;;;;;;4593272;19;20430;-74
2023/12/01 06:15:50;;;;;;;25.85;14.05;;;18.10;99.90;;;;;;4593120;19;20002;-74
2023/12/01 06:17:27;;;;;;;29.02;14.52;;;18.30;99.90;;;;;;4593169;19;20029;-74
2023/12/01 06:19:02;;;;;;;24.27;13.15;;;18.50;99.90;;;;;;4592612;19;20327;-74
2023/12/01 06:20:37;;;;;;;27.85;13.45;;;18.60;99.90;;;;;;4591594;19;20015;-74
2023/12/01 06:22:12;;;;;;;23.42;14.00;;;18.80;99.90;;;;;;4591988;19;20013;-74
2023/12/01 06:23:46;;;;;;;23.73;13.35;;;18.90;99.90;;;;;;4592940;19;20028;-74
2023/12/01 06:25:21;;;;;;;23.30;13.32;;;19.00;99.90;;;;;;4593077;19;20002;-74
2023/12/01 06:26:59;;;;;;;28.02;15.75;;;19.10;99.90;;;;;;4591574;19;20002;-74
2023/12/01 06:28:34;;;;;;;28.42;14.25;;;19.10;99.90;;;;;;4592875;19;20010;-74
2023/12/01 06:30:12;;;;;;;23.55;13.20;;;19.20;99.90;;;;;;4592845;19;20066;-74
2023/12/01 06:31:47;;;;;;;24.15;14.98;;;19.20;99.90;;;;;;4593194;19;20003;-74
2023/12/01 06:33:21;;;;;;;25.33;14.63;;;19.20;99.90;;;;;;4592795;19;20002;-74
2023/12/01 06:34:59;;;;;;;23.60;14.23;;;19.20;99.90;;;;;;4593067;19;20310;-74
2023/12/01 06:36:34;;;;;;;25.05;13.98;;;19.10;99.90;;;;;;4592923;19;20009;-74
2023/12/01 06:38:09;;;;;;;25.15;13.77;;;19.10;99.90;;;;;;4592616;19;20013;-74
2023/12/01 06:39:44;;;;;;;23.33;12.93;;;19.10;99.90;;;;;;4591995;19;20010;-74
2023/12/01 06:41:19;;;;;;;27.05;13.98;;;19.00;99.90;;;;;;4592600;19;20018;-74
2023/12/01 06:42:54;;;;;;;26.55;14.65;;;19.00;99.90;;;;;;4590077;19;20034;-74
2023/12/01 06:44:34;;;;;;;24.77;15.05;;;19.00;99.90;;;;;;4591220;19;20010;-74
2023/12/01 06:46:09;;;;;;;22.45;13.43;;;19.00;99.90;;;;;;4591182;19;20006;-74
2023/12/01 06:47:46;;;;;;;25.50;14.70;;;18.90;99.90;;;;;;4590726;19;20326;-74
2023/12/01 06:49:22;;;;;;;29.75;14.30;;;18.80;99.90;;;;;;4590675;19;20026;-74
2023/12/01 06:50:57;;;;;;;26.10;15.60;;;18.80;99.90;;;;;;4592093;19;20065;-74
2023/12/01 06:52:31;;;;;;;26.67;13.57;;;18.80;99.90;;;;;;4592330;19;20005;-74
2023/12/01 06:54:09;;;;;;;24.42;13.40;;;18.70;99.90;;;;;;4591110;19;20437;-74
2023/12/01 06:55:43;;;;;;;23.60;12.90;;;18.70;99.90;;;;;;4592149;19;20010;-74
2023/12/01 06:57:19;;;;;;;26.52;14.50;;;18.70;99.90;;;;;;4592338;19;20033;-75
2023/12/01 06:58:55;;;;;;;22.73;14.40;;;18.60;99.90;;;;;;4592288;19;20332;-73
2023/12/01 07:00:30;;;;;;;24.42;13.82;;;18.60;99.90;;;;;;4590931;19;20452;-73
2023/12/01 07:02:04;;;;;;;25.95;14.13;;;18.50;99.90;;;;;;4591190;19;20314;-73
2023/12/01 07:03:40;;;;;;;24.88;13.38;;;18.50;99.90;;;;;;4592257;19;20010;-74
2023/12/01 07:05:19;;;;;;;19.98;12.48;;;18.50;99.90;;;;;;4591113;19;20010;-74
2023/12/01 07:06:53;;;;;;;22.27;14.52;;;18.40;99.90;;;;;;4592249;19;20422;-74
2023/12/01 07:08:29;;;;;;;27.85;16.02;;;18.40;99.90;;;;;;4590920;19;20445;-74
2023/12/01 07:10:05;;;;;;;22.08;14.77;;;18.30;99.90;;;;;;4590672;19;20318;-74
2023/12/01 07:11:40;;;;;;;28.80;15.90;;;18.30;99.90;;;;;;4592459;19;20006;-74
2023/12/01 07:13:16;;;;;;;25.70;15.18;;;18.20;99.90;;;;;;4592099;19;20006;-74
2023/12/01 07:14:50;;;;;;;27.13;14.40;;;18.20;99.90;;;;;;4592283;19;20009;-73
2023/12/01 07:16:26;;;;;;;25.60;15.10;;;18.20;99.90;;;;;;4592300;19;20019;-73
2023/12/01 07:18:04;;;;;;;22.80;13.73;;;18.20;99.90;;;;;;4592132;19;20070;-73
2023/12/01 07:19:38;;;;;;;24.67;14.65;;;18.10;99.90;;;;;;4590840;19;20066;-73
2023/12/01 07:21:13;;;;;;;26.58;14.43;;;18.00;99.90;;;;;;4592043;19;20015;-74
2023/12/01 07:22:49;;;;;;;28.08;15.18;;;18.00;99.90;;;;;;4590859;19;20007;-74
2023/12/01 07:24:23;;;;;;;26.85;15.20;;;18.00;99.90;;;;;;4590620;19;20469;-74
2023/12/01 07:25:57;;;;;;;27.58;14.55;;;18.00;99.90;;;;;;4591485;19;20006;-74
2023/12/01 07:27:34;;;;;;;24.38;14.35;;;17.90;99.90;;;;;;4591929;19;20007;-74
2023/12/01 07:29:09;;;;;;;25.38;15.45;;;17.90;99.90;;;;;;4591234;19;20445;-74
2023/12/01 07:30:43;;;;;;;30.40;17.20;;;17.90;99.90;;;;;;4591759;19;20425;-74
2023/12/01 07:32:19;;;;;;;28.25;16.42;;;17.80;99.90;;;;;;4591834;19;20025;-74
2023/12/01 07:33:54;;;;;;;25.30;15.20;;;17.80;99.90;;;;;;4591713;19;20002;-74
2023/12/01 07:35:29;;;;;;;27.67;15.00;;;17.80;99.90;;;;;;4591645;19;20012;-74
2023/12/01 07:37:10;;;;;;;26.63;15.77;;;17.70;99.90;;;;;;4591679;19;20434;-74
2023/12/01 07:38:46;;;;;;;24.65;14.45;;;17.70;99.90;;;;;;4591435;19;20013;-74
2023/12/01 07:40:21;;;;;;;21.27;14.75;;;17.70;99.90;;;;;;4591675;19;20007;-75
2023/12/01 07:41:56;;;;;;;29.33;15.85;;;17.70;99.90;;;;;;4589749;19;20011;-74
2023/12/01 07:43:32;;;;;;;26.60;15.48;;;17.60;99.90;;;;;;4590939;19;20116;-75
2023/12/01 07:45:08;;;;;;;23.52;14.75;;;17.60;99.90;;;;;;4592048;19;20074;-75
2023/12/01 07:46:45;;;;;;;25.75;17.08;;;17.60;99.90;;;;;;4591637;19;20007;-74
2023/12/01 07:48:19;;;;;;;24.52;15.70;;;17.60;99.90;;;;;;4591680;19;19998;-74
2023/12/01 07:49:53;;;;;;;29.40;16.48;;;17.50;99.90;;;;;;4590318;19;20007;-75
2023/12/01 07:51:29;;;;;;;27.00;14.27;;;17.50;99.90;;;;;;4590207;19;20006;-74
2023/12/01 07:53:04;;;;;;;26.80;15.60;;;17.50;99.90;;;;;;4591083;19;20445;-73
2023/12/01 07:54:38;;;;;;;29.08;16.08;;;17.50;99.90;;;;;;4591648;19;20026;-73
2023/12/01 07:56:23;;;;;;;27.08;15.65;;;17.40;99.90;;;;;;4590050;19;19998;-73
2023/12/01 07:57:58;;;;;;;24.60;15.75;;;17.40;99.90;;;;;;4591215;19;20003;-74
2023/12/01 07:59:33;;;;;;;27.63;16.58;;;17.40;99.90;;;;;;4590989;19;20010;-74
2023/12/01 08:01:08;;;;;;;25.45;15.73;;;17.40;99.90;;;;;;4594545;19;20007;-73
2023/12/01 08:02:43;;;;;;;23.23;15.75;;;17.30;99.90;;;;;;4594324;19;20007;-73
2023/12/01 08:04:19;;;;;;;23.75;15.82;;;17.40;99.90;;;;;;4594519;19;20006;-74
2023/12/01 08:05:53;;;;;;;24.63;15.77;;;17.40;99.90;;;;;;4595756;19;20003;-73
2023/12/01 08:07:27;;;;;;;25.60;16.00;;;17.30;99.90;;;;;;4596006;19;20003;-73
2023/12/01 08:09:03;;;;;;;25.48;15.57;;;17.20;99.90;;;;;;4595199;19;20086;-74
2023/12/01 08:10:37;;;;;;;25.05;15.68;;;17.20;99.90;;;;;;4596001;19;20002;-74
2023/12/01 08:12:11;;;;;;;24.77;15.95;;;17.20;99.90;;;;;;4594312;19;20012;-73
2023/12/01 08:13:47;;;;;;;26.17;15.35;;;17.20;99.90;;;;;;4594642;19;20023;-74
2023/12/01 08:15:22;;;;;;;29.25;15.50;;;17.20;99.90;;;;;;4595322;19;20003;-75
2023/12/01 08:16:57;;;;;;;25.02;16.17;;;17.20;99.90;;;;;;4595632;19;20303;-74
2023/12/01 08:18:33;;;;;;;27.75;17.13;;;17.20;99.90;;;;;;4595610;19;20011;-75
2023/12/01 08:20:07;;;;;;;22.92;16.58;;;17.10;99.90;;;;;;4593838;19;20018;-74
2023/12/01 08:21:41;;;;;;;24.88;15.70;;;17.10;99.90;;;;;;4595195;19;20002;-75
2023/12/01 08:23:17;;;;;;;23.05;15.80;;;17.10;99.90;;;;;;4595561;19;20379;-75
2023/12/01 08:24:52;;;;;;;26.48;16.02;;;17.00;99.90;;;;;;4595706;19;20302;-74